PAVD METAR and TAF weather

Enter ICAO airport designator
Station Type Date Time Source
PAVD METAR 2020/04/09 07:56 UTC NOAA

PAVD 090756Z AUTO 03008KT 10SM SCT110 02/M12 A3001 RMK AO2 SLP159 T00171117 400391011 FZRANO


Station Type Date Time Source
PAVD Decoded METAR 2020/04/09 07:56 UTC NOAA

Valdez 2, AK, United States (PAVD) 61-08N 146-16W
Apr 09, 2020 - 03:56 AM EDT / 2020.04.09 0756 UTC
Wind: from the NNE (030 degrees) at 9 MPH (8 KT):0
Visibility: 10 mile(s):0
Sky conditions: partly cloudy
Temperature: 35.1 F (1.7 C)
Dew Point: 10.9 F (-11.7 C)
Relative Humidity: 36%
Pressure (altimeter): 30.01 in. Hg (1016 hPa)
ob: PAVD 090756Z AUTO 03008KT 10SM SCT110 02/M12 A3001 RMK AO2 SLP159 T00171117 400391011 FZRANO
cycle: 8

Station Type Date Time Source
PAVD TAF 2020/04/09 06:36 UTC NOAA

TAF PAVD 090534Z 0906/1006 07015G25KT P6SM FEW035 SCT100 SCT200
FM091200 07008G15KT P6SM SKC
FM100000 11010KT P6SM SKC
AMD LTD TO CLD VIS AND WIND

Example: see airport list